Chatham Center, New York
Current Conditions -  °F | °C
As of 9:15 AM on Tuesday 27 Jan 2015 (Local Time) from KPSF Reporting Station
Moderate Snow Moderate Snow  
Wind Chill: -4°   Ceiling: 1400
Heat Index: 10°   Visibility: 0.5mi
Dew Point:   Wind: 10mph
Humidity: 84%   Direction: 310°NW
Pressure: 29.66"   Gusts: NA
Location:  42.429°N, 73.6523°W
Report Text: KPSF 271415Z AUTO 31009KT 1/2SM SN FZFG VV014 M12/M14 A2966 RMK AO2 P0000 T11221144
Loading
Personal Weather Stations






























Interactive Weather Map New forecast layout! Learn more

10-Day Weather Forecast

Advertisements
Track Severe Weather on mobile